Time;durP1;ratioP1;P1;durP2;ratioP2;P2;SDS_P1;SDS_P2;PMS_P1;PMS_P2;Temp;Humidity;BMP_temperature;BMP_pressure;BME280_temperature;BME280_humidity;BME280_pressure;Samples;Min_cycle;Max_cycle;Signal;HPM_P1;HPM_P2
2022/09/23 00:02:09;;;;;;;6.83;5.83;;;;;;;9.90;78.63;95075.50;5053740;28;20458;-81
2022/09/23 00:04:36;;;;;;;6.20;5.60;;;;;;;9.89;79.67;95072.06;5053823;28;20481;-81
2022/09/23 00:07:03;;;;;;;5.83;5.33;;;;;;;9.88;79.73;95062.53;5053651;28;20478;-81
2022/09/23 00:09:31;;;;;;;5.77;5.27;;;;;;;9.83;79.26;95075.19;5053732;28;20485;-81
2022/09/23 00:11:59;;;;;;;6.87;6.17;;;;;;;9.81;80.00;95071.81;5051488;28;20446;-81
2022/09/23 00:14:26;;;;;;;6.23;5.67;;;;;;;9.79;79.43;95067.66;5053599;28;20450;-81
2022/09/23 00:16:53;;;;;;;6.97;6.23;;;;;;;9.76;78.86;95071.34;5053726;28;20438;-81
2022/09/23 00:19:20;;;;;;;6.60;5.73;;;;;;;9.80;79.14;95061.44;5018535;28;20512;-81
2022/09/23 00:21:47;;;;;;;6.60;6.00;;;;;;;9.83;79.31;95069.06;5053753;28;20446;-80
2022/09/23 00:24:14;;;;;;;6.30;5.70;;;;;;;9.82;79.31;95073.47;5053931;28;20443;-81
2022/09/23 00:26:43;;;;;;;6.10;5.60;;;;;;;9.86;78.70;95069.69;5053685;28;20449;-81
2022/09/23 00:29:10;;;;;;;6.90;5.97;;;;;;;9.88;78.99;95073.03;5053654;28;20537;-82
2022/09/23 00:31:37;;;;;;;6.47;5.97;;;;;;;9.93;78.93;95067.41;5053459;28;20466;-81
2022/09/23 00:34:03;;;;;;;6.37;5.77;;;;;;;9.91;79.57;95067.53;5053873;28;20441;-81
2022/09/23 00:36:32;;;;;;;7.30;6.50;;;;;;;9.90;78.86;95070.28;5053436;28;20446;-80
2022/09/23 00:38:58;;;;;;;6.47;5.87;;;;;;;9.90;78.76;95058.00;5053410;28;20471;-81
2022/09/23 00:41:26;;;;;;;6.93;6.17;;;;;;;9.82;79.50;95062.16;5053244;28;20446;-80
2022/09/23 00:43:59;;;;;;;6.37;5.67;;;;;;;9.64;80.30;95069.69;5053242;28;20454;-81
2022/09/23 00:46:30;;;;;;;7.90;6.40;;;;;;;9.69;81.00;95064.94;5053373;28;20454;-81
2022/09/23 00:49:00;;;;;;;6.03;5.43;;;;;;;9.71;81.51;95063.03;5052517;28;20449;-80
2022/09/23 00:51:33;;;;;;;6.80;6.20;;;;;;;9.68;81.37;95067.66;5053432;28;20497;-81
2022/09/23 00:54:02;;;;;;;8.43;7.00;;;;;;;9.63;80.78;95061.00;5053006;28;20445;-81
2022/09/23 00:56:32;;;;;;;6.70;6.10;;;;;;;9.66;80.79;95059.94;5052790;28;20538;-81
2022/09/23 00:59:01;;;;;;;6.70;6.10;;;;;;;9.64;81.16;95069.69;5053110;28;20446;-80
2022/09/23 01:01:27;;;;;;;8.07;7.00;;;;;;;9.65;80.73;95071.38;5053096;28;20461;-80
2022/09/23 01:03:57;;;;;;;9.20;7.20;;;;;;;9.67;81.09;95064.22;5052903;28;20970;-81
2022/09/23 01:06:24;;;;;;;6.93;6.23;;;;;;;9.66;81.48;95064.34;5053297;28;20519;-80
2022/09/23 01:08:52;;;;;;;6.73;6.03;;;;;;;9.67;81.10;95064.22;5017990;28;20449;-81
2022/09/23 01:11:40;;;;;;;7.30;6.63;;;;;;;9.68;80.34;95065.06;5052941;28;20482;-81
2022/09/23 01:14:25;;;;;;;7.23;5.73;;;;;;;9.59;81.29;95064.81;5052822;28;20453;-81
2022/09/23 01:16:58;;;;;;;6.80;5.97;;;;;;;9.45;81.41;95058.97;5053043;28;20453;-81
2022/09/23 01:19:50;;;;;;;7.17;6.53;;;;;;;9.49;81.40;95070.88;5052689;28;20456;-81
2022/09/23 01:22:27;;;;;;;6.40;5.80;;;;;;;9.47;82.07;95073.63;5052578;28;20473;-81
2022/09/23 01:25:23;;;;;;;6.10;5.50;;;;;;;9.41;82.11;95063.63;5052763;28;20455;-81
2022/09/23 01:28:10;;;;;;;7.03;6.40;;;;;;;9.38;82.08;95066.47;5052295;28;20453;-81
2022/09/23 01:30:46;;;;;;;7.53;6.47;;;;;;;9.39;82.47;95062.09;5052666;28;20481;-81
2022/09/23 01:33:20;;;;;;;6.33;5.73;;;;;;;9.38;82.34;95070.88;5052531;28;20442;-81
2022/09/23 01:36:09;;;;;;;6.97;6.37;;;;;;;9.27;81.85;95069.94;5052147;28;20520;-80
2022/09/23 01:38:44;;;;;;;7.97;6.53;;;;;;;9.19;82.33;95074.91;5052698;28;20434;-81
2022/09/23 01:41:28;;;;;;;6.60;5.80;;;;;;;9.17;83.07;95071.56;5052104;28;20976;-81
2022/09/23 01:44:02;;;;;;;6.70;6.07;;;;;;;9.16;83.08;95080.38;5052463;28;20860;-81
2022/09/23 01:46:35;;;;;;;6.97;6.20;;;;;;;9.18;83.21;95083.72;5052319;28;20452;-81
2022/09/23 01:49:08;;;;;;;8.07;6.60;;;;;;;9.20;82.59;95078.34;5052603;28;20449;-80
2022/09/23 01:51:38;;;;;;;7.80;7.00;;;;;;;9.23;82.30;95072.88;5052044;28;20858;-81
2022/09/23 01:54:12;;;;;;;8.90;6.03;;;;;;;9.23;81.86;95068.47;5052336;28;20449;-80
2022/09/23 01:56:43;;;;;;;7.80;6.00;;;;;;;9.24;81.92;95074.56;5051947;28;20452;-81
2022/09/23 01:59:16;;;;;;;6.77;5.90;;;;;;;9.16;81.26;95075.16;5017989;28;20442;-81
2022/09/23 02:01:50;;;;;;;6.30;5.70;;;;;;;9.20;81.64;95079.19;5051597;28;20425;-81
2022/09/23 02:04:22;;;;;;;8.43;6.27;;;;;;;9.20;81.01;95067.88;5052223;28;20497;-81
2022/09/23 02:06:59;;;;;;;6.63;6.03;;;;;;;9.26;80.86;95076.13;5051894;28;21148;-81
2022/09/23 02:09:31;;;;;;;6.90;5.63;;;;;;;9.23;80.82;95062.41;5051911;28;20453;-80
2022/09/23 02:12:04;;;;;;;12.63;6.17;;;;;;;9.26;81.10;95081.38;5051838;28;20497;-81
2022/09/23 02:14:36;;;;;;;8.57;6.67;;;;;;;9.24;80.67;95078.00;5052023;28;20445;-81
2022/09/23 02:17:11;;;;;;;6.07;5.50;;;;;;;9.22;80.63;95069.44;5051978;28;20456;-81
2022/09/23 02:19:45;;;;;;;6.33;5.73;;;;;;;9.25;80.33;95078.84;5051864;28;20448;-81
2022/09/23 02:22:19;;;;;;;5.83;5.27;;;;;;;9.24;80.26;95074.56;5051837;28;20480;-81
2022/09/23 02:24:46;;;;;;;5.10;4.70;;;;;;;9.25;80.22;95078.84;5051634;28;20967;-81
2022/09/23 02:27:24;;;;;;;6.30;5.70;;;;;;;9.19;80.49;95068.84;5051972;28;20956;-80
2022/09/23 02:29:57;;;;;;;9.00;6.17;;;;;;;9.16;79.93;95072.53;5051570;28;20929;-81
2022/09/23 02:32:33;;;;;;;8.50;6.33;;;;;;;9.07;79.87;95078.47;5052046;28;20795;-81
2022/09/23 02:35:06;;;;;;;13.40;6.03;;;;;;;8.88;81.05;95071.16;5051844;28;20448;-81
2022/09/23 02:37:42;;;;;;;6.87;6.17;;;;;;;8.87;81.39;95079.97;5051844;28;20450;-81
2022/09/23 02:40:15;;;;;;;7.40;6.07;;;;;;;8.81;82.04;95075.19;5051398;28;20449;-81
2022/09/23 02:42:50;;;;;;;7.30;6.60;;;;;;;8.83;82.33;95078.53;5051655;28;20446;-81
2022/09/23 02:45:17;;;;;;;7.70;6.13;;;;;;;8.81;83.53;95075.19;5017737;28;20437;-81
2022/09/23 02:47:51;;;;;;;7.10;6.40;;;;;;;8.85;83.24;95076.63;5051336;28;20860;-81
2022/09/23 02:50:19;;;;;;;6.87;6.27;;;;;;;8.89;82.52;95078.06;5051355;28;20509;-81
2022/09/23 02:52:46;;;;;;;8.60;7.00;;;;;;;8.89;83.13;95080.69;5051485;28;20510;-81
2022/09/23 02:55:17;;;;;;;6.57;5.97;;;;;;;8.93;82.75;95083.91;5051517;28;20820;-81
2022/09/23 02:57:45;;;;;;;7.33;6.00;;;;;;;8.98;82.79;95087.03;5051539;28;20803;-80
2022/09/23 03:00:13;;;;;;;7.50;6.23;;;;;;;8.94;82.24;95096.03;5051116;28;20442;-81
2022/09/23 03:03:06;;;;;;;5.87;5.37;;;;;;;8.97;82.64;95088.81;5044515;28;20489;-81
2022/09/23 03:05:38;;;;;;;6.83;6.13;;;;;;;8.91;82.43;95096.25;4999589;28;20478;-81
2022/09/23 03:08:41;;;;;;;8.03;6.60;;;;;;;8.81;81.92;95082.22;5009357;28;20447;-79
2022/09/23 03:11:12;;;;;;;7.03;6.40;;;;;;;8.74;81.57;95088.84;5009298;28;20578;-81
2022/09/23 03:13:54;;;;;;;6.67;6.07;;;;;;;8.72;81.92;95094.22;4965135;28;20447;-81
2022/09/23 03:16:31;;;;;;;4.90;4.50;;;;;;;8.67;81.96;95089.31;5012651;28;20968;-81
2022/09/23 03:19:17;;;;;;;6.60;6.00;;;;;;;8.55;82.17;95090.22;5012305;28;20447;-80
2022/09/23 03:21:49;;;;;;;7.00;6.20;;;;;;;8.57;82.52;95088.31;5012545;28;20463;-81
2022/09/23 03:24:18;;;;;;;6.40;5.80;;;;;;;8.50;83.06;95081.88;4980529;28;20514;-81
2022/09/23 03:26:47;;;;;;;6.80;6.13;;;;;;;8.45;82.69;95081.38;5012645;28;20451;-81
2022/09/23 03:29:16;;;;;;;8.50;6.00;;;;;;;8.44;82.91;95074.50;4979431;28;20439;-80
2022/09/23 03:31:44;;;;;;;9.83;5.57;;;;;;;8.41;83.12;95082.56;5012298;28;20482;-81
2022/09/23 03:34:16;;;;;;;7.70;6.10;;;;;;;8.40;82.95;95080.88;5012298;28;20451;-80
2022/09/23 03:36:52;;;;;;;7.67;6.30;;;;;;;8.40;83.12;95088.72;5012440;28;21017;-81
2022/09/23 03:39:29;;;;;;;6.20;5.50;;;;;;;8.41;82.83;95085.19;5012249;28;20435;-81
2022/09/23 03:42:00;;;;;;;7.80;6.87;;;;;;;8.40;83.27;95086.13;5017231;28;20458;-80
2022/09/23 03:44:30;;;;;;;8.30;6.67;;;;;;;8.43;83.79;95085.88;5054127;28;20444;-80
2022/09/23 03:47:01;;;;;;;6.67;5.80;;;;;;;8.49;83.02;95090.66;5054529;28;20516;-79
2022/09/23 03:49:33;;;;;;;6.40;5.80;;;;;;;8.43;83.16;95090.28;5054464;28;20839;-81
2022/09/23 03:52:02;;;;;;;8.33;7.30;;;;;;;8.39;83.22;95094.91;5054240;28;20485;-81
2022/09/23 03:54:29;;;;;;;7.53;6.93;;;;;;;8.44;82.44;95100.63;5053945;28;20445;-81
2022/09/23 03:56:57;;;;;;;8.33;7.23;;;;;;;8.35;82.79;95099.50;5053795;28;20536;-81
2022/09/23 03:59:24;;;;;;;13.33;7.00;;;;;;;8.22;83.12;95101.31;5053834;28;20506;-81
2022/09/23 04:01:51;;;;;;;9.93;7.20;;;;;;;8.19;83.22;95109.38;5054356;28;20894;-79
2022/09/23 04:04:18;;;;;;;7.53;6.77;;;;;;;8.19;83.24;95104.16;5053544;28;20480;-80
2022/09/23 04:06:46;;;;;;;11.37;7.73;;;;;;;8.00;84.28;95103.78;5053710;28;20779;-81
2022/09/23 04:09:13;;;;;;;11.23;9.87;;;;;;;7.89;85.09;95101.94;5053694;28;20925;-80
2022/09/23 04:11:40;;;;;;;14.10;8.07;;;;;;;7.85;85.03;95107.50;5053716;28;20495;-81
2022/09/23 04:14:07;;;;;;;12.70;8.70;;;;;;;7.82;85.98;95115.56;5054150;28;20446;-81
2022/09/23 04:16:34;;;;;;;10.10;9.07;;;;;;;7.78;85.86;95122.75;5054790;28;20830;-81
2022/09/23 04:19:00;;;;;;;14.97;10.03;;;;;;;7.73;85.68;95110.03;5055409;28;20457;-79
2022/09/23 04:21:30;;;;;;;9.73;8.73;;;;;;;7.77;86.36;95116.69;5055439;28;20441;-81
2022/09/23 04:23:58;;;;;;;12.67;9.27;;;;;;;7.59;86.00;95117.16;5020293;28;20455;-80
2022/09/23 04:26:25;;;;;;;11.07;9.80;;;;;;;7.65;86.66;95116.72;5054959;28;20430;-83
2022/09/23 04:28:52;;;;;;;11.43;10.20;;;;;;;7.70;86.71;95125.91;5054600;28;20959;-81
2022/09/23 04:31:18;;;;;;;13.00;9.57;;;;;;;7.73;86.53;95117.03;5054747;28;20503;-84
2022/09/23 04:33:45;;;;;;;13.53;10.90;;;;;;;7.81;86.58;95125.19;5055375;28;20436;-81
2022/09/23 04:36:12;;;;;;;11.23;9.50;;;;;;;7.84;86.30;95129.34;5035779;28;20448;-80
2022/09/23 04:38:39;;;;;;;13.00;9.60;;;;;;;7.95;85.59;95129.41;5032850;28;20434;-81
2022/09/23 04:41:10;;;;;;;13.10;8.83;;;;;;;8.02;85.50;95123.66;5045920;28;20482;-82
2022/09/23 04:43:36;;;;;;;9.17;7.60;;;;;;;8.12;85.57;95128.25;5053541;28;20461;-88
2022/09/23 04:46:05;;;;;;;9.47;8.37;;;;;;;8.14;84.83;95142.88;5054999;28;20449;-83
2022/09/23 04:48:33;;;;;;;12.03;7.80;;;;;;;8.20;84.53;95141.59;5054644;28;20449;-84
2022/09/23 04:51:03;;;;;;;15.50;9.90;;;;;;;8.28;84.47;95139.25;5056508;28;20551;-86
2022/09/23 04:53:29;;;;;;;14.50;9.37;;;;;;;8.35;84.53;95146.56;5054559;28;20449;-83
2022/09/23 04:56:01;;;;;;;9.83;8.83;;;;;;;8.37;84.83;95149.91;5054482;28;20441;-85
2022/09/23 04:58:30;;;;;;;12.53;8.10;;;;;;;8.38;84.88;95155.97;5054555;28;20441;-84
2022/09/23 05:00:57;;;;;;;16.70;9.40;;;;;;;8.50;85.69;95152.47;5054067;28;20802;-86
2022/09/23 05:03:24;;;;;;;20.20;7.70;;;;;;;8.58;87.28;95144.91;5054066;28;21284;-86
2022/09/23 05:05:51;;;;;;;7.77;7.07;;;;;;;8.65;86.59;95148.75;5068149;28;20795;-86
2022/09/23 05:08:18;;;;;;;9.20;6.83;;;;;;;8.69;84.98;95147.59;5053610;28;20502;-82
2022/09/23 05:10:44;;;;;;;6.83;6.23;;;;;;;8.65;86.04;95148.75;5054108;28;20437;-83
2022/09/23 05:13:11;;;;;;;9.13;7.23;;;;;;;8.76;85.51;95154.97;5054020;28;20453;-81
2022/09/23 05:15:39;;;;;;;13.53;7.30;;;;;;;8.75;84.95;95156.78;5035749;28;20909;-79
2022/09/23 05:18:06;;;;;;;7.73;6.93;;;;;;;8.64;85.37;95152.31;5054117;28;20437;-81
2022/09/23 05:20:33;;;;;;;10.27;7.90;;;;;;;8.65;86.09;95153.13;5054313;28;20453;-84
2022/09/23 05:23:00;;;;;;;9.80;7.97;;;;;;;8.63;85.73;95149.81;5054134;28;20452;-83
2022/09/23 05:25:27;;;;;;;12.83;8.00;;;;;;;8.63;86.11;95155.88;5054641;28;20456;-80
2022/09/23 05:27:54;;;;;;;9.20;8.30;;;;;;;8.64;87.03;95161.94;5053940;28;20449;-81
2022/09/23 05:30:21;;;;;;;10.20;9.00;;;;;;;8.80;87.39;95166.88;5053421;28;20988;-79
2022/09/23 05:32:49;;;;;;;9.07;8.17;;;;;;;8.95;88.22;95160.50;5053471;28;20494;-80
2022/09/23 05:35:16;;;;;;;18.80;9.67;;;;;;;9.13;87.35;95167.00;5053051;28;20812;-80
2022/09/23 05:37:42;;;;;;;11.83;8.87;;;;;;;9.30;87.21;95163.13;5053903;28;20445;-81
2022/09/23 05:40:10;;;;;;;15.73;9.73;;;;;;;9.50;86.31;95170.31;5053301;28;20438;-80
2022/09/23 05:42:36;;;;;;;12.43;9.60;;;;;;;9.80;86.31;95167.13;5018582;28;20477;-78
2022/09/23 05:45:04;;;;;;;10.40;8.77;;;;;;;10.13;85.58;95157.59;5053267;28;20835;-81
2022/09/23 05:47:31;;;;;;;11.27;7.80;;;;;;;10.48;84.83;95152.19;5053644;28;20465;-81
2022/09/23 05:49:59;;;;;;;9.13;7.93;;;;;;;10.95;84.17;95166.69;5053414;28;20452;-81
2022/09/23 05:52:26;;;;;;;9.03;7.50;;;;;;;11.70;86.84;95163.09;5053475;28;20489;-80
2022/09/23 05:54:53;;;;;;;8.90;8.03;;;;;;;12.25;76.24;95161.84;5053265;28;20453;-82
2022/09/23 05:57:20;;;;;;;16.13;8.80;;;;;;;12.76;74.40;95166.13;5052643;28;21549;-80
2022/09/23 05:59:47;;;;;;;10.67;9.27;;;;;;;13.31;72.65;95166.47;5052258;28;20457;-81
2022/09/23 06:02:14;;;;;;;13.50;8.13;;;;;;;13.85;70.59;95163.16;5052496;28;20477;-80
2022/09/23 06:04:41;;;;;;;9.97;7.20;;;;;;;14.25;68.08;95157.59;5052605;28;21209;-80
2022/09/23 06:07:10;;;;;;;9.40;8.50;;;;;;;14.62;68.99;95154.09;5053101;28;20485;-78
2022/09/23 06:09:36;;;;;;;9.83;8.93;;;;;;;15.03;65.34;95151.88;5053009;28;20870;-81
2022/09/23 06:12:04;;;;;;;10.70;8.53;;;;;;;15.33;63.89;95151.50;5052366;28;20816;-80
2022/09/23 06:14:30;;;;;;;9.63;8.67;;;;;;;15.55;62.56;95154.63;5052241;28;20446;-80
2022/09/23 06:16:57;;;;;;;11.50;8.90;;;;;;;15.76;61.78;95152.50;5053515;28;20768;-81
2022/09/23 06:19:24;;;;;;;7.67;6.87;;;;;;;16.08;60.96;95155.34;5053191;28;20436;-85
2022/09/23 06:21:51;;;;;;;9.40;8.37;;;;;;;16.44;59.94;95157.84;5052804;28;20951;-79
2022/09/23 06:24:19;;;;;;;12.30;8.97;;;;;;;16.67;59.41;95151.00;5052915;28;20453;-79
2022/09/23 06:26:47;;;;;;;9.73;8.73;;;;;;;17.05;58.29;95148.78;5053139;28;20436;-84
2022/09/23 06:29:14;;;;;;;8.63;7.93;;;;;;;17.29;57.33;95140.84;5053056;28;20866;-82
2022/09/23 06:31:42;;;;;;;8.33;7.63;;;;;;;17.66;57.62;95139.53;5052227;28;20567;-80
2022/09/23 06:34:10;;;;;;;8.97;6.90;;;;;;;17.98;54.82;95136.03;5053263;28;20478;-86
2022/09/23 06:36:37;;;;;;;8.90;6.40;;;;;;;18.08;58.46;95125.22;5052821;28;20445;-85
2022/09/23 06:39:04;;;;;;;8.27;7.37;;;;;;;18.22;54.63;95137.81;5052868;28;20454;-81
2022/09/23 06:41:34;;;;;;;9.87;8.27;;;;;;;18.16;54.31;95143.78;5053271;28;20434;-82
2022/09/23 06:44:03;;;;;;;11.23;7.90;;;;;;;17.63;54.17;95134.53;5052827;28;20985;-80
2022/09/23 06:46:30;;;;;;;9.53;7.73;;;;;;;16.87;58.32;95130.38;5053824;28;20536;-82
2022/09/23 06:48:58;;;;;;;9.00;8.10;;;;;;;16.48;57.85;95148.59;5056697;28;20439;-86
2022/09/23 06:51:24;;;;;;;7.60;6.90;;;;;;;16.40;58.56;95153.84;5056777;28;20447;-81
2022/09/23 06:53:51;;;;;;;7.60;6.40;;;;;;;16.11;60.04;95154.22;5056682;28;20447;-80
2022/09/23 06:56:21;;;;;;;8.50;6.73;;;;;;;15.44;61.13;95156.53;5056116;28;20451;-79
2022/09/23 06:58:51;;;;;;;6.77;6.17;;;;;;;15.19;62.35;95155.50;5057078;28;20442;-86
2022/09/23 07:01:19;;;;;;;10.77;6.30;;;;;;;14.98;65.84;95143.56;5056674;28;20452;-84
2022/09/23 07:03:47;;;;;;;7.30;6.63;;;;;;;14.99;64.62;95159.28;5056736;28;20524;-81
2022/09/23 07:06:14;;;;;;;8.60;6.47;;;;;;;15.12;62.13;95162.38;5056626;28;20483;-83
2022/09/23 07:08:43;;;;;;;10.80;7.00;;;;;;;14.74;62.92;95162.63;5056394;28;20435;-85
2022/09/23 07:11:11;;;;;;;7.83;7.10;;;;;;;14.33;63.85;95164.78;5056276;28;20458;-87
2022/09/23 07:13:40;;;;;;;8.10;7.30;;;;;;;14.33;63.79;95169.22;5055852;28;20485;-80
2022/09/23 07:16:09;;;;;;;8.40;7.60;;;;;;;13.95;65.28;95174.53;5056401;28;20536;-79
2022/09/23 07:18:36;;;;;;;7.83;7.00;;;;;;;13.84;66.34;95171.19;5056136;28;20851;-79
2022/09/23 07:21:08;;;;;;;7.20;6.53;;;;;;;13.71;66.44;95170.69;5056373;28;20473;-80
2022/09/23 07:23:36;;;;;;;13.07;8.53;;;;;;;13.42;67.95;95161.03;5056663;28;20473;-80
2022/09/23 07:26:04;;;;;;;7.30;6.60;;;;;;;13.37;68.22;95173.81;5056307;28;20442;-80
2022/09/23 07:28:31;;;;;;;7.57;6.83;;;;;;;13.48;70.18;95178.06;5056004;28;20839;-83
2022/09/23 07:31:03;;;;;;;7.70;7.00;;;;;;;13.48;68.14;95180.72;5056484;28;20482;-79
2022/09/23 07:33:31;;;;;;;7.10;6.50;;;;;;;13.71;68.75;95174.16;5055945;28;20486;-81
2022/09/23 07:35:58;;;;;;;10.10;6.90;;;;;;;13.90;67.32;95189.13;5056101;28;20442;-79
2022/09/23 07:38:28;;;;;;;7.40;6.73;;;;;;;13.59;67.68;95180.59;5055872;28;20453;-79
2022/09/23 07:41:00;;;;;;;9.87;7.63;;;;;;;13.46;70.20;95180.03;5055638;28;20924;-81
2022/09/23 07:43:30;;;;;;;14.17;10.30;;;;;;;13.57;68.75;95180.69;5055765;28;20477;-82
2022/09/23 07:46:01;;;;;;;11.20;7.07;;;;;;;13.44;69.26;95182.81;5055497;28;20450;-80
2022/09/23 07:48:28;;;;;;;9.33;7.90;;;;;;;13.62;68.50;95188.22;5055827;28;20541;-80
2022/09/23 07:50:58;;;;;;;10.13;9.03;;;;;;;13.76;67.55;95189.56;5055470;28;20936;-77
2022/09/23 07:53:25;;;;;;;9.60;7.27;;;;;;;14.01;67.07;95185.47;5055634;28;20480;-80
2022/09/23 07:55:53;;;;;;;9.77;8.27;;;;;;;14.14;66.03;95178.06;5055998;28;20426;-85
2022/09/23 07:58:20;;;;;;;10.67;7.07;;;;;;;14.37;65.22;95173.25;5054101;28;20563;-80
2022/09/23 08:00:47;;;;;;;6.77;6.10;;;;;;;14.59;68.29;95175.53;5055785;28;20836;-80
2022/09/23 08:03:14;;;;;;;6.63;5.37;;;;;;;14.43;63.46;95175.31;5055229;28;20474;-80
2022/09/23 08:05:41;;;;;;;6.10;5.57;;;;;;;14.56;63.59;95184.56;5054304;28;21020;-79
2022/09/23 08:08:09;;;;;;;6.97;5.50;;;;;;;14.50;63.30;95184.34;5055442;28;20449;-79
2022/09/23 08:10:36;;;;;;;6.57;5.97;;;;;;;14.71;63.95;95178.78;5055558;28;20495;-79
2022/09/23 08:13:03;;;;;;;6.30;5.77;;;;;;;15.05;63.21;95181.66;5036957;28;20489;-80
2022/09/23 08:15:30;;;;;;;6.30;5.80;;;;;;;14.99;62.22;95171.66;5054375;28;20541;-80
2022/09/23 08:17:58;;;;;;;6.90;6.20;;;;;;;15.27;62.45;95181.19;5054067;28;20976;-79
2022/09/23 08:26:10;;;;;;;9.00;6.63;;;;;;;15.81;58.88;95168.75;4953416;29;20436;-80
2022/09/23 08:28:37;;;;;;;7.00;6.30;;;;;;;15.30;61.48;95175.59;4953612;29;20443;-80
2022/09/23 08:31:04;;;;;;;7.03;6.20;;;;;;;15.12;61.69;95162.38;4953548;29;20447;-79
2022/09/23 08:33:31;;;;;;;7.80;7.07;;;;;;;15.02;62.22;95174.00;4953243;28;20486;-79
2022/09/23 08:36:00;;;;;;;10.70;6.63;;;;;;;14.95;60.58;95170.28;4953297;28;20450;-79
2022/09/23 08:38:29;;;;;;;8.20;5.47;;;;;;;14.63;61.91;95161.03;4953339;29;20446;-79
2022/09/23 08:41:05;;;;;;;6.03;4.93;;;;;;;14.92;60.28;95165.31;4953449;29;20985;-80
2022/09/23 08:43:35;;;;;;;5.07;4.63;;;;;;;15.26;61.20;95158.38;4953090;28;20439;-80
2022/09/23 08:46:05;;;;;;;6.90;6.30;;;;;;;15.22;59.86;95166.75;4953278;29;20447;-80
2022/09/23 08:48:35;;;;;;;6.70;5.50;;;;;;;15.14;60.46;95164.88;4953343;29;20447;-79
2022/09/23 08:51:06;;;;;;;5.67;5.17;;;;;;;14.66;60.53;95162.56;4953093;28;20466;-79
2022/09/23 08:53:36;;;;;;;7.13;5.60;;;;;;;14.20;61.58;95159.84;4953352;29;21044;-79
2022/09/23 08:56:07;;;;;;;6.33;5.83;;;;;;;14.17;62.63;95154.88;4962881;28;20439;-79
2022/09/23 08:58:50;;;;;;;11.30;6.93;;;;;;;14.27;64.61;95163.56;5011440;28;20483;-80
2022/09/23 09:01:24;;;;;;;5.27;4.80;;;;;;;14.25;62.96;95154.13;5052999;28;20941;-80
2022/09/23 09:03:54;;;;;;;6.13;5.23;;;;;;;14.51;62.22;95159.59;5053080;28;20518;-80
2022/09/23 09:06:26;;;;;;;6.73;6.03;;;;;;;14.67;62.14;95153.66;5053252;28;20575;-80
2022/09/23 09:08:57;;;;;;;5.73;5.10;;;;;;;14.96;61.94;95156.09;5052232;28;20944;-80
2022/09/23 09:11:31;;;;;;;5.20;4.70;;;;;;;14.98;59.75;95156.78;5053410;28;20459;-80
2022/09/23 09:14:05;;;;;;;6.30;5.70;;;;;;;15.08;61.02;95139.88;5017480;28;20478;-80
2022/09/23 09:16:51;;;;;;;5.67;5.07;;;;;;;15.53;59.24;95164.53;5053004;28;20440;-78
2022/09/23 09:19:21;;;;;;;6.90;5.70;;;;;;;15.66;59.29;95162.38;5052734;28;20460;-79
2022/09/23 09:21:53;;;;;;;5.53;5.03;;;;;;;15.45;59.26;95152.09;5053162;28;20446;-79
2022/09/23 09:24:31;;;;;;;6.37;5.77;;;;;;;15.62;59.75;95171.59;5052599;28;20488;-79
2022/09/23 09:26:59;;;;;;;4.67;4.27;;;;;;;15.78;57.91;95163.75;5052588;28;20456;-80
2022/09/23 09:29:32;;;;;;;4.30;3.93;;;;;;;15.93;56.78;95164.88;5052700;28;20521;-79
2022/09/23 09:31:59;;;;;;;4.63;4.23;;;;;;;16.19;54.40;95158.69;5052439;28;20444;-80
2022/09/23 09:34:35;;;;;;;6.33;5.17;;;;;;;16.40;55.00;95148.56;5052254;28;20488;-80
2022/09/23 09:37:06;;;;;;;5.00;4.50;;;;;;;16.51;53.84;95160.69;5017102;28;20442;-79
2022/09/23 09:39:36;;;;;;;3.97;3.67;;;;;;;16.56;53.92;95158.41;5052364;28;20947;-79
2022/09/23 09:42:05;;;;;;;5.60;4.77;;;;;;;16.29;53.42;95164.72;5052483;28;20450;-79
2022/09/23 09:44:38;;;;;;;4.43;4.10;;;;;;;16.46;53.81;95155.84;5052277;28;21012;-79
2022/09/23 09:47:19;;;;;;;4.70;4.30;;;;;;;16.41;52.33;95155.50;5052519;28;20455;-80
2022/09/23 09:49:51;;;;;;;4.20;3.80;;;;;;;16.47;52.96;95148.75;5052364;28;20454;-79
2022/09/23 09:52:24;;;;;;;4.40;4.00;;;;;;;16.37;55.58;95148.88;5052349;28;20455;-80
2022/09/23 09:55:01;;;;;;;5.37;3.40;;;;;;;16.38;51.31;95150.53;5052113;28;20450;-79
2022/09/23 09:57:32;;;;;;;3.40;3.20;;;;;;;16.49;52.48;95152.91;5019893;28;20453;-80
2022/09/23 10:00:18;;;;;;;4.10;3.70;;;;;;;16.61;51.86;95153.44;5033370;28;20435;-79
2022/09/23 10:02:45;;;;;;;4.63;4.17;;;;;;;16.33;52.81;95145.72;5051784;28;20520;-79
2022/09/23 10:05:26;;;;;;;5.30;4.20;;;;;;;16.17;53.49;95152.75;5017033;28;20447;-80
2022/09/23 10:07:53;;;;;;;4.63;4.30;;;;;;;16.00;53.83;95155.31;5052380;28;20513;-79
2022/09/23 10:10:23;;;;;;;4.50;4.07;;;;;;;15.83;52.87;95150.06;5052140;28;20483;-79
2022/09/23 10:12:51;;;;;;;4.40;3.93;;;;;;;15.78;54.50;95139.94;5051987;28;20478;-80
2022/09/23 10:15:32;;;;;;;4.47;3.43;;;;;;;15.94;52.34;95142.72;5051992;28;20448;-79
2022/09/23 10:18:01;;;;;;;3.80;3.50;;;;;;;16.05;52.04;95142.44;5052303;28;20441;-80
2022/09/23 10:20:35;;;;;;;3.73;3.43;;;;;;;16.10;52.34;95140.13;5052551;28;20456;-80
2022/09/23 10:23:07;;;;;;;4.53;3.23;;;;;;;16.10;52.14;95136.66;5056589;28;20461;-83
2022/09/23 10:25:36;;;;;;;4.63;3.67;;;;;;;16.09;53.17;95132.34;5056980;28;20542;-82
2022/09/23 10:28:32;;;;;;;3.53;3.23;;;;;;;15.95;50.39;95130.31;5056905;28;20456;-84
2022/09/23 10:31:07;;;;;;;3.47;3.23;;;;;;;15.76;49.45;95126.06;5057596;28;20508;-83
2022/09/23 10:33:35;;;;;;;3.17;2.97;;;;;;;15.66;50.48;95127.97;5056044;28;20485;-84
2022/09/23 10:36:02;;;;;;;3.50;3.20;;;;;;;15.66;52.09;95126.16;5057320;28;20437;-81
2022/09/23 10:38:28;;;;;;;4.70;3.37;;;;;;;15.74;52.02;95115.63;5057666;28;20445;-83
2022/09/23 10:46:40;;;;;;;3.83;3.53;;;;;;;16.06;50.99;95125.56;5056702;28;20480;-82
2022/09/23 10:49:33;;;;;;;3.90;3.53;;;;;;;16.05;50.92;95113.31;5056955;28;20440;-81
2022/09/23 10:52:15;;;;;;;4.30;3.30;;;;;;;16.08;52.02;95123.59;5056864;28;20452;-82
2022/09/23 10:54:56;;;;;;;4.00;3.60;;;;;;;16.03;51.88;95114.47;5056909;28;20479;-80
2022/09/23 10:57:40;;;;;;;5.27;3.90;;;;;;;16.00;50.69;95105.03;5056937;28;20450;-81
2022/09/23 11:00:21;;;;;;;3.70;3.40;;;;;;;16.16;51.13;95103.41;5037762;28;20444;-80
2022/09/23 11:03:13;;;;;;;3.57;3.27;;;;;;;16.22;51.46;95098.34;5056350;28;20845;-82
2022/09/23 11:05:47;;;;;;;3.57;3.30;;;;;;;16.19;50.42;95101.31;5053875;28;20454;-81
2022/09/23 11:08:30;;;;;;;4.13;3.73;;;;;;;16.30;51.13;95101.03;5056537;28;20793;-80
2022/09/23 11:11:17;;;;;;;4.07;3.77;;;;;;;16.38;50.00;95084.31;5056125;28;20496;-80
2022/09/23 11:14:04;;;;;;;3.93;3.57;;;;;;;16.36;48.61;95084.47;5056268;28;20476;-80
2022/09/23 11:16:44;;;;;;;5.90;3.60;;;;;;;16.51;49.13;95084.72;5056738;28;20451;-81
2022/09/23 11:19:31;;;;;;;3.50;3.30;;;;;;;16.57;48.39;95075.28;5056351;28;20440;-81
2022/09/23 11:22:09;;;;;;;4.27;2.77;;;;;;;16.64;49.04;95070.97;5055453;28;20444;-81
2022/09/23 11:24:57;;;;;;;3.70;3.30;;;;;;;16.73;48.52;95080.63;5055485;28;20446;-80
2022/09/23 11:27:36;;;;;;;3.30;3.00;;;;;;;16.85;49.33;95083.81;5055861;28;20447;-80
2022/09/23 11:30:09;;;;;;;3.07;2.80;;;;;;;16.95;46.79;95072.03;5055708;28;20441;-80
2022/09/23 11:33:01;;;;;;;4.03;3.63;;;;;;;16.97;48.40;95077.19;5055670;28;20504;-80
2022/09/23 11:35:34;;;;;;;3.87;3.57;;;;;;;16.91;47.08;95069.91;5038914;28;20445;-81
2022/09/23 11:38:08;;;;;;;4.93;3.13;;;;;;;16.88;46.65;95072.88;5020851;28;20441;-81
2022/09/23 11:40:38;;;;;;;3.47;2.97;;;;;;;16.75;46.54;95059.25;5055612;28;20456;-80
2022/09/23 11:43:14;;;;;;;4.43;4.03;;;;;;;16.72;45.31;95065.72;5055936;28;20574;-81
2022/09/23 11:45:47;;;;;;;2.97;2.77;;;;;;;16.69;45.54;95064.22;5052245;28;20456;-80
2022/09/23 11:48:18;;;;;;;2.53;2.20;;;;;;;16.71;44.96;95056.09;5054846;28;20441;-80
2022/09/23 11:50:50;;;;;;;2.30;2.13;;;;;;;16.63;42.92;95054.25;5035930;28;20455;-81
2022/09/23 11:53:22;;;;;;;3.83;3.50;;;;;;;16.50;44.97;95042.50;5054578;28;20492;-80
2022/09/23 11:55:57;;;;;;;4.90;3.30;;;;;;;16.49;45.26;95046.94;5055787;28;20440;-81
2022/09/23 11:58:28;;;;;;;5.37;2.90;;;;;;;16.45;46.91;95045.59;5055688;28;20846;-81
2022/09/23 12:01:00;;;;;;;3.13;2.77;;;;;;;16.63;47.93;95048.94;5055547;28;20852;-80
2022/09/23 12:03:43;;;;;;;2.40;2.20;;;;;;;16.72;45.15;95045.34;5054164;28;20499;-80
2022/09/23 12:06:15;;;;;;;2.90;2.53;;;;;;;16.78;43.17;95054.50;5054664;28;20448;-81
2022/09/23 12:08:42;;;;;;;2.70;2.50;;;;;;;16.73;42.09;95054.94;5055924;28;20448;-80